<?xml version="1.0" encoding="UTF-8" standalone="no" ?>
<gpx xmlns="http://www.topografix.com/GPX/1/1" xmlns:xsi="http://www.w3.org/2001/XMLSchema-instance" xsi:schemaLocation="http://www.topografix.com/GPX/1/1 http://www.topografix.com/GPX/1/1/gpx.xsd" version="1.1" creator="VisuGPX - https://www.visugpx.com">
  <metadata>
    <name>boucles beaumont</name>
    <desc><![CDATA[boucles beaumont du périgord]]></desc>
  </metadata>
  <trk>
    <name><![CDATA[BBmt17]]></name>
    <trkseg>
      <trkpt lat="44.81658" lon="0.79965">
        <ele>166</ele>
        <time>2008-12-08T10:59:26Z</time>
      </trkpt>
      <trkpt lat="44.81638" lon="0.79963">
        <ele>162</ele>
        <time>2008-12-08T11:04:16Z</time>
      </trkpt>
      <trkpt lat="44.8162" lon="0.7997">
        <ele>162</ele>
        <time>2008-12-08T11:04:20Z</time>
      </trkpt>
      <trkpt lat="44.81603" lon="0.79978">
        <ele>161</ele>
        <time>2008-12-08T11:04:24Z</time>
      </trkpt>
      <trkpt lat="44.81583" lon="0.7999">
        <ele>163</ele>
        <time>2008-12-08T11:04:29Z</time>
      </trkpt>
      <trkpt lat="44.81563" lon="0.8">
        <ele>164</ele>
        <time>2008-12-08T11:04:33Z</time>
      </trkpt>
      <trkpt lat="44.81543" lon="0.80013">
        <ele>166</ele>
        <time>2008-12-08T11:04:37Z</time>
      </trkpt>
      <trkpt lat="44.81523" lon="0.80025">
        <ele>167</ele>
        <time>2008-12-08T11:04:40Z</time>
      </trkpt>
      <trkpt lat="44.81505" lon="0.80035">
        <ele>168</ele>
        <time>2008-12-08T11:04:43Z</time>
      </trkpt>
      <trkpt lat="44.8149" lon="0.8002">
        <ele>171</ele>
        <time>2008-12-08T11:04:59Z</time>
      </trkpt>
      <trkpt lat="44.8149" lon="0.7999">
        <ele>172</ele>
        <time>2008-12-08T11:05:02Z</time>
      </trkpt>
      <trkpt lat="44.81493" lon="0.79958">
        <ele>170</ele>
        <time>2008-12-08T11:05:05Z</time>
      </trkpt>
      <trkpt lat="44.81495" lon="0.79925">
        <ele>170</ele>
        <time>2008-12-08T11:05:08Z</time>
      </trkpt>
      <trkpt lat="44.815" lon="0.79895">
        <ele>170</ele>
        <time>2008-12-08T11:05:11Z</time>
      </trkpt>
      <trkpt lat="44.81498" lon="0.7986">
        <ele>169</ele>
        <time>2008-12-08T11:05:14Z</time>
      </trkpt>
      <trkpt lat="44.81488" lon="0.7983">
        <ele>170</ele>
        <time>2008-12-08T11:05:17Z</time>
      </trkpt>
      <trkpt lat="44.81478" lon="0.79805">
        <ele>173</ele>
        <time>2008-12-08T11:05:20Z</time>
      </trkpt>
      <trkpt lat="44.81478" lon="0.79778">
        <ele>175</ele>
        <time>2008-12-08T11:05:32Z</time>
      </trkpt>
      <trkpt lat="44.81475" lon="0.7975">
        <ele>176</ele>
        <time>2008-12-08T11:05:37Z</time>
      </trkpt>
      <trkpt lat="44.81473" lon="0.7972">
        <ele>177</ele>
        <time>2008-12-08T11:05:40Z</time>
      </trkpt>
      <trkpt lat="44.81473" lon="0.79693">
        <ele>174</ele>
        <time>2008-12-08T11:05:49Z</time>
      </trkpt>
      <trkpt lat="44.81463" lon="0.79668">
        <ele>170</ele>
        <time>2008-12-08T11:05:55Z</time>
      </trkpt>
      <trkpt lat="44.81445" lon="0.79653">
        <ele>168</ele>
        <time>2008-12-08T11:05:58Z</time>
      </trkpt>
      <trkpt lat="44.81423" lon="0.79643">
        <ele>166</ele>
        <time>2008-12-08T11:06:01Z</time>
      </trkpt>
      <trkpt lat="44.81398" lon="0.79635">
        <ele>165</ele>
        <time>2008-12-08T11:06:04Z</time>
      </trkpt>
      <trkpt lat="44.81375" lon="0.79625">
        <ele>164</ele>
        <time>2008-12-08T11:06:07Z</time>
      </trkpt>
      <trkpt lat="44.81353" lon="0.79618">
        <ele>163</ele>
        <time>2008-12-08T11:06:10Z</time>
      </trkpt>
      <trkpt lat="44.8133" lon="0.7961">
        <ele>161</ele>
        <time>2008-12-08T11:06:13Z</time>
      </trkpt>
      <trkpt lat="44.8131" lon="0.79598">
        <ele>159</ele>
        <time>2008-12-08T11:06:16Z</time>
      </trkpt>
      <trkpt lat="44.81293" lon="0.79583">
        <ele>157</ele>
        <time>2008-12-08T11:06:25Z</time>
      </trkpt>
      <trkpt lat="44.81283" lon="0.7956">
        <ele>156</ele>
        <time>2008-12-08T11:06:28Z</time>
      </trkpt>
      <trkpt lat="44.81273" lon="0.79538">
        <ele>156</ele>
        <time>2008-12-08T11:06:32Z</time>
      </trkpt>
      <trkpt lat="44.81258" lon="0.79523">
        <ele>153</ele>
        <time>2008-12-08T11:06:45Z</time>
      </trkpt>
      <trkpt lat="44.81243" lon="0.79508">
        <ele>156</ele>
        <time>2008-12-08T11:06:51Z</time>
      </trkpt>
      <trkpt lat="44.81228" lon="0.79493">
        <ele>161</ele>
        <time>2008-12-08T11:06:58Z</time>
      </trkpt>
      <trkpt lat="44.81213" lon="0.79478">
        <ele>160</ele>
        <time>2008-12-08T11:07:03Z</time>
      </trkpt>
      <trkpt lat="44.8028" lon="0.79009">
        <ele>105</ele>
        <time>2009-06-18T16:43:36Z</time>
      </trkpt>
      <trkpt lat="44.8028" lon="0.79001">
        <ele>105</ele>
        <time>2009-06-18T16:43:36Z</time>
      </trkpt>
      <trkpt lat="44.8028" lon="0.78991">
        <ele>105</ele>
        <time>2008-12-08T11:07:08Z</time>
      </trkpt>
    </trkseg>
  </trk>
</gpx>